createdAt,value
2019-05-13T00:02:17.021Z,8.58
2019-05-13T00:04:46.427Z,8.57
2019-05-13T00:07:16.611Z,8.57
2019-05-13T00:09:45.499Z,8.56
2019-05-13T00:12:14.698Z,8.57
2019-05-13T00:14:43.635Z,8.57
2019-05-13T00:17:14.564Z,8.53
2019-05-13T00:19:44.288Z,8.50
2019-05-13T00:22:14.071Z,8.47
2019-05-13T00:24:44.295Z,8.43
2019-05-13T00:27:14.140Z,8.47
2019-05-13T00:29:44.435Z,8.44
2019-05-13T00:32:13.574Z,8.41
2019-05-13T00:34:44.578Z,8.35
2019-05-13T00:37:14.676Z,8.38
2019-05-13T00:39:44.229Z,8.38
2019-05-13T00:42:14.279Z,8.31
2019-05-13T00:44:44.349Z,8.33
2019-05-13T00:47:13.547Z,8.33
2019-05-13T00:49:44.683Z,8.34
2019-05-13T00:52:14.258Z,8.34
2019-05-13T00:54:44.173Z,8.34
2019-05-13T00:57:13.400Z,8.34
2019-05-13T00:59:44.268Z,8.31
2019-05-13T01:02:13.981Z,8.29
2019-05-13T01:04:44.669Z,8.30
2019-05-13T01:07:24.786Z,8.30
2019-05-13T01:09:44.415Z,8.30
2019-05-13T01:12:13.423Z,8.30
2019-05-13T01:14:43.216Z,8.27
2019-05-13T01:17:14.085Z,8.28
2019-05-13T01:19:43.391Z,8.28
2019-05-13T01:22:13.594Z,8.27
2019-05-13T01:24:44.139Z,8.27
2019-05-13T01:27:13.967Z,8.25
2019-05-13T01:29:43.550Z,8.25
2019-05-13T01:32:14.291Z,8.24
2019-05-13T01:34:44.356Z,8.22
2019-05-13T01:37:13.356Z,8.21
2019-05-13T01:39:43.740Z,8.20
2019-05-13T01:42:13.743Z,8.18
2019-05-13T01:44:43.790Z,8.21
2019-05-13T01:47:13.479Z,8.19
2019-05-13T01:49:43.975Z,8.19
2019-05-13T01:52:13.649Z,8.20
2019-05-13T01:54:44.259Z,8.19
2019-05-13T01:57:14.287Z,8.16
2019-05-13T01:59:43.514Z,8.16
2019-05-13T02:02:13.812Z,8.14
2019-05-13T02:04:43.937Z,8.12
2019-05-13T02:07:14.372Z,8.06
2019-05-13T02:09:44.339Z,8.03
2019-05-13T02:12:15.255Z,8.02
2019-05-13T02:14:44.745Z,7.99
2019-05-13T02:17:14.639Z,7.93
2019-05-13T02:19:44.247Z,7.93
2019-05-13T02:22:14.600Z,7.89
2019-05-13T02:24:44.677Z,7.85
2019-05-13T02:27:14.275Z,7.85
2019-05-13T02:29:43.620Z,7.82
2019-05-13T02:32:13.737Z,7.81
2019-05-13T02:34:43.958Z,7.84
2019-05-13T02:37:13.323Z,7.82
2019-05-13T02:39:42.940Z,7.80
2019-05-13T02:42:13.307Z,7.78
2019-05-13T02:44:43.725Z,7.76
2019-05-13T02:47:12.728Z,7.75
2019-05-13T02:49:43.072Z,7.77
2019-05-13T02:52:13.257Z,7.71
2019-05-13T02:54:42.837Z,7.72
2019-05-13T02:57:12.939Z,7.69
2019-05-13T02:59:42.427Z,7.67
2019-05-13T03:02:12.297Z,7.67
2019-05-13T03:04:43.422Z,7.67
2019-05-13T03:07:12.181Z,7.64
2019-05-13T03:09:42.238Z,7.63
2019-05-13T03:12:13.611Z,7.59
2019-05-13T03:14:48.068Z,7.57
2019-05-13T03:17:25.446Z,7.57
2019-05-13T03:19:54.696Z,7.56
2019-05-13T03:22:23.412Z,7.55
2019-05-13T03:24:52.629Z,7.55
2019-05-13T03:27:24.860Z,7.55
2019-05-13T03:29:53.361Z,7.51
2019-05-13T03:32:27.244Z,7.51
2019-05-13T03:34:56.111Z,7.47
2019-05-13T03:37:26.699Z,7.47
2019-05-13T03:39:55.706Z,7.47
2019-05-13T03:42:26.496Z,7.48
2019-05-13T03:44:56.051Z,7.44
2019-05-13T03:47:25.295Z,7.49
2019-05-13T03:50:02.865Z,7.46
2019-05-13T03:52:33.239Z,7.43
2019-05-13T03:55:03.215Z,7.47
2019-05-13T03:57:33.744Z,7.48
2019-05-13T04:00:04.285Z,7.46
2019-05-13T04:02:33.175Z,7.43
2019-05-13T04:05:04.034Z,7.44
2019-05-13T04:07:32.837Z,7.41
2019-05-13T04:10:03.389Z,7.41
2019-05-13T04:12:33.340Z,7.41
2019-05-13T04:15:03.819Z,7.41
2019-05-13T04:17:33.105Z,7.42
2019-05-13T04:20:03.023Z,7.45
2019-05-13T04:22:33.393Z,7.45
2019-05-13T04:25:02.779Z,7.43
2019-05-13T04:27:32.809Z,7.44
2019-05-13T04:30:03.458Z,7.47
2019-05-13T04:32:33.718Z,7.47
2019-05-13T04:35:04.141Z,7.49
2019-05-13T04:37:34.083Z,7.48
2019-05-13T04:40:04.058Z,7.53
2019-05-13T04:42:33.505Z,7.53
2019-05-13T04:45:03.288Z,7.56
2019-05-13T04:47:33.502Z,7.59
2019-05-13T04:50:03.295Z,7.58
2019-05-13T04:52:42.068Z,7.62
2019-05-13T04:55:13.146Z,7.64
2019-05-13T05:00:50.103Z,7.63
2019-05-13T05:03:33.225Z,7.63
2019-05-13T05:06:33.213Z,7.67
2019-05-13T05:09:26.843Z,7.66
2019-05-13T05:12:15.544Z,7.73
2019-05-13T05:15:36.416Z,7.76
2019-05-13T05:18:48.446Z,7.82
2019-05-13T05:21:27.345Z,7.93
2019-05-13T05:24:45.229Z,8.06
2019-05-13T05:27:39.273Z,8.20
2019-05-13T05:30:36.865Z,8.35
2019-05-13T05:33:44.387Z,8.52
2019-05-13T05:36:52.065Z,8.67
2019-05-13T05:39:27.737Z,8.74
2019-05-13T05:42:01.992Z,8.81
2019-05-13T05:44:32.603Z,8.90
2019-05-13T05:47:04.576Z,9.08
2019-05-13T05:49:41.098Z,9.41
2019-05-13T05:52:12.424Z,9.99
2019-05-13T05:54:42.185Z,10.66
2019-05-13T05:57:12.291Z,11.40
2019-05-13T06:10:23.763Z,12.42
2019-05-13T06:13:01.861Z,12.54
2019-05-13T06:15:32.118Z,12.68
2019-05-13T06:18:02.292Z,12.74
2019-05-13T06:20:31.789Z,12.53
2019-05-13T06:23:02.178Z,12.73
2019-05-13T06:25:33.729Z,13.17
2019-05-13T06:28:01.909Z,13.57
2019-05-13T06:30:32.590Z,14.06
2019-05-13T06:33:01.735Z,14.36
2019-05-13T06:35:32.283Z,14.49
2019-05-13T06:38:01.865Z,14.47
2019-05-13T06:40:31.837Z,14.74
2019-05-13T06:43:01.536Z,15.17
2019-05-13T06:45:31.641Z,15.58
2019-05-13T06:48:02.379Z,16.36
2019-05-13T06:50:32.387Z,16.88
2019-05-13T06:53:02.363Z,17.38
2019-05-13T06:55:31.658Z,17.44
2019-05-13T06:58:02.224Z,18.61
2019-05-13T07:00:34.729Z,19.17
2019-05-13T07:03:02.452Z,19.58
2019-05-13T07:05:31.856Z,20.32
2019-05-13T07:08:02.158Z,20.56
2019-05-13T07:10:32.056Z,21.01
2019-05-13T07:13:02.254Z,21.32
2019-05-13T07:15:31.619Z,21.08
2019-05-13T07:18:02.287Z,20.87
2019-05-13T07:20:32.178Z,20.89
2019-05-13T07:23:01.782Z,20.67
2019-05-13T07:25:32.665Z,20.57
2019-05-13T07:28:02.129Z,20.98
2019-05-13T07:30:42.181Z,20.44
2019-05-13T07:33:12.642Z,20.32
2019-05-13T07:35:44.632Z,19.57
2019-05-13T07:38:12.523Z,19.33
2019-05-13T07:40:41.945Z,18.95
2019-05-13T07:43:12.374Z,18.19
2019-05-13T07:45:42.505Z,18.05
2019-05-13T07:48:20.670Z,17.85
2019-05-13T07:50:53.712Z,17.56
2019-05-13T07:53:18.552Z,16.97
2019-05-13T08:32:04.345Z,16.48
2019-05-13T08:34:35.254Z,16.56
2019-05-13T08:37:04.328Z,16.48
2019-05-13T08:44:58.099Z,16.63
2019-05-13T08:47:28.188Z,16.56
2019-05-13T08:50:00.718Z,16.59
2019-05-13T08:52:31.348Z,16.67
2019-05-13T08:57:42.619Z,16.50
2019-05-13T09:00:13.701Z,16.52
2019-05-13T09:16:06.868Z,16.78
2019-05-13T09:18:35.745Z,16.89
2019-05-13T09:21:08.424Z,16.99
2019-05-13T09:23:37.517Z,17.05
2019-05-13T09:26:06.814Z,17.12
2019-05-13T09:28:44.484Z,17.12
2019-05-13T09:31:13.470Z,17.15
2019-05-13T09:33:42.357Z,16.89
2019-05-13T09:36:12.533Z,16.83
2019-05-13T09:38:45.456Z,16.38
2019-05-13T09:41:14.371Z,16.23
2019-05-13T09:43:43.390Z,15.61
2019-05-13T09:46:14.543Z,15.63
2019-05-13T09:48:43.691Z,15.56
2019-05-13T09:51:13.821Z,15.70
2019-05-13T09:56:25.884Z,16.08
2019-05-13T09:58:55.247Z,16.31
2019-05-13T10:01:24.610Z,16.50
2019-05-13T10:03:58.212Z,16.56
2019-05-13T10:06:27.656Z,16.38
2019-05-13T10:08:56.870Z,16.33
2019-05-13T10:11:25.873Z,16.19
2019-05-13T10:13:56.886Z,15.74
2019-05-13T10:16:27.028Z,15.48
2019-05-13T10:18:55.873Z,15.58
2019-05-13T10:21:24.813Z,15.62
2019-05-13T10:23:58.660Z,15.50
2019-05-13T10:26:28.679Z,15.64
2019-05-13T10:28:59.649Z,15.76
2019-05-13T11:17:37.581Z,16.49
2019-05-13T11:22:49.009Z,16.90
2019-05-13T11:25:18.380Z,17.09
2019-05-13T11:27:58.181Z,17.23
2019-05-13T11:30:24.612Z,17.20
2019-05-13T11:38:22.171Z,16.51
2019-05-13T11:40:52.421Z,16.57
2019-05-13T11:43:21.611Z,16.74
2019-05-13T11:45:52.021Z,16.92
2019-05-13T11:48:23.484Z,17.03
2019-05-13T11:50:54.164Z,17.02
2019-05-13T11:53:32.738Z,17.23
2019-05-13T11:55:54.036Z,17.43
2019-05-13T11:58:23.328Z,17.44
2019-05-13T12:00:57.765Z,17.25
2019-05-13T12:03:32.177Z,17.06
2019-05-13T12:06:02.275Z,17.27
2019-05-13T12:08:34.051Z,17.31
2019-05-13T12:11:06.669Z,17.33
2019-05-13T12:16:35.035Z,17.38
2019-05-13T12:19:03.892Z,17.16
2019-05-13T12:21:32.767Z,16.57
2019-05-13T12:24:10.157Z,16.57
2019-05-13T12:26:33.411Z,16.62
2019-05-13T12:29:02.991Z,16.73
2019-05-13T12:31:33.784Z,16.70
2019-05-13T12:34:03.895Z,16.75
2019-05-13T12:36:33.364Z,16.89
2019-05-13T12:39:06.001Z,17.06
2019-05-13T12:41:35.932Z,16.81
2019-05-13T12:44:04.838Z,16.68
2019-05-13T12:46:34.009Z,16.67
2019-05-13T12:49:03.905Z,16.26
2019-05-13T12:51:32.982Z,16.17
2019-05-13T12:54:03.937Z,16.02
2019-05-13T12:56:33.506Z,15.80
2019-05-13T12:59:03.111Z,15.67
2019-05-13T13:01:32.631Z,15.78
2019-05-13T13:04:02.285Z,15.93
2019-05-13T13:06:40.050Z,15.98
2019-05-13T13:09:01.781Z,15.98
2019-05-13T13:19:44.544Z,16.06
2019-05-13T13:22:13.787Z,16.21
2019-05-13T13:24:51.412Z,16.23
2019-05-13T13:59:36.287Z,15.69
2019-05-13T14:02:07.309Z,15.78
2019-05-13T14:04:38.569Z,15.69
2019-05-13T14:07:33.820Z,15.64
2019-05-13T14:09:39.864Z,15.59
2019-05-13T14:12:11.193Z,15.51
2019-05-13T14:14:41.475Z,15.48
2019-05-13T14:17:11.403Z,15.54
2019-05-13T14:19:42.253Z,15.69
2019-05-13T14:22:12.535Z,15.89
2019-05-13T14:24:51.146Z,16.15
2019-05-13T14:27:12.736Z,16.36
2019-05-13T14:29:48.560Z,16.49
2019-05-13T14:32:12.903Z,16.52
2019-05-13T14:37:24.348Z,16.33
2019-05-13T14:39:54.289Z,16.30
2019-05-13T14:42:23.169Z,16.13
2019-05-13T14:44:52.304Z,15.94
2019-05-13T14:47:21.808Z,15.92
2019-05-13T14:49:52.180Z,15.79
2019-05-13T14:52:22.275Z,15.67
2019-05-13T14:54:51.589Z,15.53
2019-05-13T14:57:21.796Z,15.43
2019-05-13T15:07:57.709Z,15.63
2019-05-13T15:10:27.052Z,15.44
2019-05-13T15:12:56.386Z,15.29
2019-05-13T15:15:26.131Z,15.25
2019-05-13T15:17:55.105Z,15.18
2019-05-13T15:20:24.319Z,15.07
2019-05-13T15:25:31.276Z,14.92
2019-05-13T15:36:01.279Z,14.70
2019-05-13T15:43:45.714Z,14.53
2019-05-13T15:46:14.823Z,14.56
2019-05-13T15:48:43.730Z,14.52
2019-05-13T15:51:12.914Z,14.56
2019-05-13T15:53:43.712Z,14.74
2019-05-13T15:56:14.851Z,15.00
2019-05-13T15:58:44.654Z,15.28
2019-05-13T16:03:55.371Z,15.74
2019-05-13T16:14:31.439Z,16.05
2019-05-13T16:22:24.979Z,16.03
2019-05-13T16:24:55.050Z,15.97
2019-05-13T16:27:24.194Z,15.93
2019-05-13T16:40:36.145Z,15.57
2019-05-13T16:45:36.230Z,15.32
2019-05-13T16:56:30.375Z,14.72
2019-05-13T16:58:58.764Z,14.59
2019-05-13T17:04:31.944Z,14.35
2019-05-13T17:07:01.510Z,14.16
2019-05-13T17:09:32.360Z,14.03
2019-05-13T17:14:43.897Z,13.83
2019-05-13T17:17:13.119Z,13.72
2019-05-13T17:19:43.331Z,13.70
2019-05-13T17:22:12.500Z,13.61
2019-05-13T17:35:27.310Z,13.47
2019-05-13T17:40:42.194Z,13.31
2019-05-13T17:43:13.634Z,13.35
2019-05-13T17:45:45.299Z,13.19
2019-05-13T17:48:26.013Z,13.12
2019-05-13T17:50:46.397Z,13.05
2019-05-13T17:53:18.341Z,13.00
2019-05-13T17:55:48.519Z,12.86
2019-05-13T17:58:17.342Z,12.79
2019-05-13T18:00:46.493Z,12.68
2019-05-13T18:03:17.318Z,12.54
2019-05-13T18:05:46.957Z,12.50
2019-05-13T18:08:16.578Z,12.43
2019-05-13T18:10:46.863Z,12.31
2019-05-13T18:13:15.831Z,12.30
2019-05-13T18:15:44.992Z,12.23
2019-05-13T18:18:44.121Z,12.12
2019-05-13T18:21:19.004Z,12.06
2019-05-13T18:23:48.190Z,12.02
2019-05-13T18:26:17.033Z,11.90
2019-05-13T18:28:46.295Z,11.89
2019-05-13T18:31:17.343Z,11.85
2019-05-13T18:33:46.410Z,11.75
2019-05-13T18:36:15.222Z,11.67
2019-05-13T18:38:45.284Z,11.57
2019-05-13T18:41:14.316Z,11.58
2019-05-13T18:43:43.984Z,11.49
2019-05-13T18:46:12.959Z,11.40
2019-05-13T18:48:57.749Z,11.35
2019-05-13T18:51:12.410Z,11.32
2019-05-13T18:53:48.610Z,11.22
2019-05-13T18:56:18.598Z,11.19
2019-05-13T18:58:50.266Z,11.10
2019-05-13T19:04:02.567Z,11.01
2019-05-13T19:06:31.955Z,10.96
2019-05-13T19:09:11.144Z,10.89
2019-05-13T19:11:42.813Z,10.82
2019-05-13T19:17:15.842Z,10.72
2019-05-13T19:20:00.929Z,10.61
2019-05-13T19:22:37.213Z,10.63
2019-05-13T19:25:07.029Z,10.53
2019-05-13T19:27:36.193Z,10.52
2019-05-13T19:30:07.712Z,10.52
2019-05-13T19:32:36.691Z,10.47
2019-05-13T19:35:06.462Z,10.46
2019-05-13T19:37:51.647Z,10.37
2019-05-13T19:40:25.806Z,10.31
2019-05-13T19:42:55.914Z,10.29
2019-05-13T19:45:25.311Z,10.27
2019-05-13T19:47:55.662Z,10.15
2019-05-13T19:50:24.956Z,10.17
2019-05-13T19:52:54.048Z,10.11
2019-05-13T19:55:24.448Z,10.09
2019-05-13T19:57:53.504Z,10.10
2019-05-13T20:00:23.610Z,10.12
2019-05-13T20:02:52.601Z,10.06
2019-05-13T20:05:23.199Z,10.02
2019-05-13T20:07:52.406Z,9.96
2019-05-13T20:10:21.544Z,9.95
2019-05-13T20:12:51.472Z,9.88
2019-05-13T20:15:22.089Z,9.80
2019-05-13T20:17:52.939Z,9.77
2019-05-13T20:20:23.108Z,9.69
2019-05-13T20:22:52.704Z,9.61
2019-05-13T20:25:21.893Z,9.54
2019-05-13T20:27:51.553Z,9.49
2019-05-13T20:30:21.910Z,9.42
2019-05-13T20:32:52.514Z,9.39
2019-05-13T20:35:21.970Z,9.32
2019-05-13T20:37:51.575Z,9.26
2019-05-13T20:40:22.089Z,9.24
2019-05-13T20:42:51.648Z,9.15
2019-05-13T20:45:22.498Z,9.11
2019-05-13T20:47:51.576Z,9.07
2019-05-13T20:50:22.578Z,9.01
2019-05-13T20:52:51.817Z,8.87
2019-05-13T20:55:21.959Z,8.88
2019-05-13T20:57:53.156Z,8.83
2019-05-13T21:00:22.042Z,8.74
2019-05-13T21:02:51.680Z,8.72
2019-05-13T21:05:21.807Z,8.67
2019-05-13T21:07:51.599Z,8.63
2019-05-13T21:10:21.294Z,8.53
2019-05-13T21:12:51.362Z,8.48
2019-05-13T21:15:20.684Z,8.41
2019-05-13T21:17:51.617Z,8.36
2019-05-13T21:20:25.565Z,8.30
2019-05-13T21:22:53.647Z,8.28
2019-05-13T21:25:28.344Z,8.26
2019-05-13T21:27:57.213Z,8.26
2019-05-13T21:30:26.294Z,8.22
2019-05-13T21:32:57.104Z,8.17
2019-05-13T21:35:26.047Z,8.10
2019-05-13T21:37:55.963Z,8.08
2019-05-13T21:40:24.910Z,8.02
2019-05-13T21:42:54.882Z,7.92
2019-05-13T21:45:23.895Z,7.83
2019-05-13T21:47:54.014Z,7.81
2019-05-13T21:50:34.392Z,7.73
2019-05-13T21:52:56.605Z,7.68
2019-05-13T21:55:25.953Z,7.61
2019-05-13T21:57:54.832Z,7.56
2019-05-13T22:00:26.412Z,7.53
2019-05-13T22:02:55.244Z,7.46
2019-05-13T22:05:24.119Z,7.40
2019-05-13T22:07:54.455Z,7.34
2019-05-13T22:10:23.454Z,7.27
2019-05-13T22:12:52.553Z,7.23
2019-05-13T22:15:21.897Z,7.15
2019-05-13T22:17:51.355Z,7.11
2019-05-13T22:20:21.363Z,7.05
2019-05-13T22:22:52.033Z,7.01
2019-05-13T22:25:21.031Z,6.95
2019-05-13T22:27:51.858Z,6.90
2019-05-13T22:30:20.870Z,6.87
2019-05-13T22:32:52.158Z,6.80
2019-05-13T22:35:21.788Z,6.74
2019-05-13T22:37:51.216Z,6.73
2019-05-13T22:40:21.928Z,6.67
2019-05-13T22:42:56.734Z,6.62
2019-05-13T22:45:21.986Z,6.60
2019-05-13T22:47:52.106Z,6.56
2019-05-13T22:50:21.823Z,6.55
2019-05-13T22:52:50.700Z,6.52
2019-05-13T22:55:21.746Z,6.40
2019-05-13T22:57:51.071Z,6.37
2019-05-13T23:00:22.201Z,6.25
2019-05-13T23:02:52.428Z,6.24
2019-05-13T23:05:21.880Z,6.21
2019-05-13T23:07:51.499Z,6.16
2019-05-13T23:10:22.559Z,6.12
2019-05-13T23:12:51.560Z,6.04
2019-05-13T23:15:21.327Z,6.03
2019-05-13T23:17:52.031Z,5.98
2019-05-13T23:20:21.323Z,5.92
2019-05-13T23:22:51.957Z,5.85
2019-05-13T23:25:21.444Z,5.82
2019-05-13T23:27:51.316Z,5.80
2019-05-13T23:30:20.391Z,5.74
2019-05-13T23:32:51.603Z,5.64
2019-05-13T23:35:21.685Z,5.56
2019-05-13T23:37:50.993Z,5.51
2019-05-13T23:40:20.635Z,5.49
2019-05-13T23:42:51.634Z,5.48
2019-05-13T23:45:21.797Z,5.44
2019-05-13T23:47:51.181Z,5.36
2019-05-13T23:50:21.488Z,5.31
2019-05-13T23:52:51.927Z,5.29
2019-05-13T23:55:22.581Z,5.24
2019-05-13T23:57:52.455Z,5.20
